sensor_id;sensor_type;location;lat;lon;timestamp;temperature;humidity
41628;DHT22;27321;50.816;6.054;2024-02-16T00:01:11;14.80;61.50
41628;DHT22;27321;50.816;6.054;2024-02-16T00:04:14;14.80;61.40
41628;DHT22;27321;50.816;6.054;2024-02-16T00:07:15;14.80;61.30
41628;DHT22;27321;50.816;6.054;2024-02-16T00:10:16;14.80;61.40
41628;DHT22;27321;50.816;6.054;2024-02-16T00:13:19;14.90;61.50
41628;DHT22;27321;50.816;6.054;2024-02-16T00:16:20;14.90;61.50
41628;DHT22;27321;50.816;6.054;2024-02-16T00:19:21;14.90;61.50
41628;DHT22;27321;50.816;6.054;2024-02-16T00:22:23;14.90;61.50
41628;DHT22;27321;50.816;6.054;2024-02-16T00:25:24;14.90;61.30
41628;DHT22;27321;50.816;6.054;2024-02-16T00:28:25;14.90;61.40
41628;DHT22;27321;50.816;6.054;2024-02-16T00:31:26;14.90;61.20
41628;DHT22;27321;50.816;6.054;2024-02-16T00:34:27;14.90;60.90
41628;DHT22;27321;50.816;6.054;2024-02-16T00:37:28;15.00;61.20
41628;DHT22;27321;50.816;6.054;2024-02-16T00:40:29;15.00;60.90
41628;DHT22;27321;50.816;6.054;2024-02-16T00:43:29;15.00;60.90
41628;DHT22;27321;50.816;6.054;2024-02-16T00:46:30;15.00;60.80
41628;DHT22;27321;50.816;6.054;2024-02-16T00:49:32;15.00;61.00
41628;DHT22;27321;50.816;6.054;2024-02-16T00:52:34;15.00;60.80
41628;DHT22;27321;50.816;6.054;2024-02-16T00:55:35;15.00;61.10
41628;DHT22;27321;50.816;6.054;2024-02-16T00:58:36;15.00;61.10
41628;DHT22;27321;50.816;6.054;2024-02-16T01:01:37;15.00;61.10
41628;DHT22;27321;50.816;6.054;2024-02-16T01:04:37;15.00;61.20
41628;DHT22;27321;50.816;6.054;2024-02-16T01:07:38;15.10;61.50
41628;DHT22;27321;50.816;6.054;2024-02-16T01:10:40;15.10;61.40
41628;DHT22;27321;50.816;6.054;2024-02-16T01:13:41;15.10;61.60
41628;DHT22;27321;50.816;6.054;2024-02-16T01:16:43;15.10;61.70
41628;DHT22;27321;50.816;6.054;2024-02-16T01:19:44;15.20;61.60
41628;DHT22;27321;50.816;6.054;2024-02-16T01:22:47;15.20;61.80
41628;DHT22;27321;50.816;6.054;2024-02-16T01:25:48;15.20;61.70
41628;DHT22;27321;50.816;6.054;2024-02-16T01:28:49;15.20;62.00
41628;DHT22;27321;50.816;6.054;2024-02-16T01:31:50;15.10;62.20
41628;DHT22;27321;50.816;6.054;2024-02-16T01:34:51;15.10;62.20
41628;DHT22;27321;50.816;6.054;2024-02-16T01:37:52;15.20;62.20
41628;DHT22;27321;50.816;6.054;2024-02-16T01:40:52;15.10;62.20
41628;DHT22;27321;50.816;6.054;2024-02-16T01:43:53;15.10;62.30
41628;DHT22;27321;50.816;6.054;2024-02-16T01:46:55;15.10;62.60
41628;DHT22;27321;50.816;6.054;2024-02-16T01:49:56;15.10;62.70
41628;DHT22;27321;50.816;6.054;2024-02-16T01:52:57;15.20;62.80
41628;DHT22;27321;50.816;6.054;2024-02-16T01:55:58;15.20;62.90
41628;DHT22;27321;50.816;6.054;2024-02-16T01:58:59;15.10;62.90
41628;DHT22;27321;50.816;6.054;2024-02-16T02:02:00;15.20;63.00
41628;DHT22;27321;50.816;6.054;2024-02-16T02:05:03;15.20;63.60
41628;DHT22;27321;50.816;6.054;2024-02-16T02:08:10;15.20;63.90
41628;DHT22;27321;50.816;6.054;2024-02-16T02:11:12;15.10;63.80
41628;DHT22;27321;50.816;6.054;2024-02-16T02:14:13;15.10;63.90
41628;DHT22;27321;50.816;6.054;2024-02-16T02:17:14;15.10;64.10
41628;DHT22;27321;50.816;6.054;2024-02-16T02:20:16;15.10;64.00
41628;DHT22;27321;50.816;6.054;2024-02-16T02:23:16;15.10;63.90
41628;DHT22;27321;50.816;6.054;2024-02-16T02:26:17;15.10;63.90
41628;DHT22;27321;50.816;6.054;2024-02-16T02:29:18;15.10;64.00
41628;DHT22;27321;50.816;6.054;2024-02-16T02:32:20;15.10;64.10
41628;DHT22;27321;50.816;6.054;2024-02-16T02:35:21;15.10;64.00
41628;DHT22;27321;50.816;6.054;2024-02-16T02:38:23;15.10;64.20
41628;DHT22;27321;50.816;6.054;2024-02-16T02:41:24;15.10;64.20
41628;DHT22;27321;50.816;6.054;2024-02-16T02:44:25;15.10;64.20
41628;DHT22;27321;50.816;6.054;2024-02-16T02:47:26;15.10;64.50
41628;DHT22;27321;50.816;6.054;2024-02-16T02:50:27;15.10;64.50
41628;DHT22;27321;50.816;6.054;2024-02-16T02:53:28;15.10;64.50
41628;DHT22;27321;50.816;6.054;2024-02-16T02:56:30;15.10;64.50
41628;DHT22;27321;50.816;6.054;2024-02-16T02:59:31;15.10;64.60
41628;DHT22;27321;50.816;6.054;2024-02-16T03:02:32;15.10;64.80
41628;DHT22;27321;50.816;6.054;2024-02-16T03:05:33;15.00;64.80
41628;DHT22;27321;50.816;6.054;2024-02-16T03:08:35;15.00;64.80
41628;DHT22;27321;50.816;6.054;2024-02-16T03:11:36;15.10;65.00
41628;DHT22;27321;50.816;6.054;2024-02-16T03:14:37;15.10;65.20
41628;DHT22;27321;50.816;6.054;2024-02-16T03:17:38;15.10;65.10
41628;DHT22;27321;50.816;6.054;2024-02-16T03:20:39;15.30;65.30
41628;DHT22;27321;50.816;6.054;2024-02-16T03:23:40;15.10;65.30
41628;DHT22;27321;50.816;6.054;2024-02-16T03:26:41;15.20;65.30
41628;DHT22;27321;50.816;6.054;2024-02-16T03:29:42;15.20;65.40
41628;DHT22;27321;50.816;6.054;2024-02-16T03:32:43;15.10;65.40
41628;DHT22;27321;50.816;6.054;2024-02-16T03:35:48;15.20;65.40
41628;DHT22;27321;50.816;6.054;2024-02-16T03:38:49;15.20;65.20
41628;DHT22;27321;50.816;6.054;2024-02-16T03:41:50;15.20;65.40
41628;DHT22;27321;50.816;6.054;2024-02-16T03:44:51;15.10;65.50
41628;DHT22;27321;50.816;6.054;2024-02-16T03:47:52;15.10;65.50
41628;DHT22;27321;50.816;6.054;2024-02-16T03:50:53;15.10;65.70
41628;DHT22;27321;50.816;6.054;2024-02-16T03:53:54;15.10;65.70
41628;DHT22;27321;50.816;6.054;2024-02-16T03:56:56;15.10;65.90
41628;DHT22;27321;50.816;6.054;2024-02-16T03:59:57;15.00;66.20
41628;DHT22;27321;50.816;6.054;2024-02-16T04:02:58;15.10;66.10
41628;DHT22;27321;50.816;6.054;2024-02-16T04:05:59;15.10;66.10
41628;DHT22;27321;50.816;6.054;2024-02-16T04:09:05;15.00;66.10
41628;DHT22;27321;50.816;6.054;2024-02-16T04:12:08;15.00;66.40
41628;DHT22;27321;50.816;6.054;2024-02-16T04:15:11;15.00;66.60
41628;DHT22;27321;50.816;6.054;2024-02-16T04:18:12;15.00;66.50
41628;DHT22;27321;50.816;6.054;2024-02-16T04:21:13;15.10;66.40
41628;DHT22;27321;50.816;6.054;2024-02-16T04:24:14;15.10;66.50
41628;DHT22;27321;50.816;6.054;2024-02-16T04:27:15;15.00;66.60
41628;DHT22;27321;50.816;6.054;2024-02-16T04:30:15;15.00;66.50
41628;DHT22;27321;50.816;6.054;2024-02-16T04:33:16;15.00;66.70
41628;DHT22;27321;50.816;6.054;2024-02-16T04:36:17;15.00;66.60
41628;DHT22;27321;50.816;6.054;2024-02-16T04:39:19;15.00;66.70
41628;DHT22;27321;50.816;6.054;2024-02-16T04:42:20;15.00;66.70
41628;DHT22;27321;50.816;6.054;2024-02-16T04:45:21;15.00;66.70
41628;DHT22;27321;50.816;6.054;2024-02-16T04:48:22;15.00;66.80
41628;DHT22;27321;50.816;6.054;2024-02-16T04:51:23;15.00;66.90
41628;DHT22;27321;50.816;6.054;2024-02-16T04:54:24;15.00;66.90
41628;DHT22;27321;50.816;6.054;2024-02-16T04:57:25;15.00;66.90
41628;DHT22;27321;50.816;6.054;2024-02-16T05:00:26;15.00;67.00
41628;DHT22;27321;50.816;6.054;2024-02-16T05:03:27;15.00;67.10
41628;DHT22;27321;50.816;6.054;2024-02-16T05:06:28;15.00;67.10
41628;DHT22;27321;50.816;6.054;2024-02-16T05:09:32;15.00;66.90
41628;DHT22;27321;50.816;6.054;2024-02-16T05:12:33;15.00;67.00
41628;DHT22;27321;50.816;6.054;2024-02-16T05:15:35;15.00;66.90
41628;DHT22;27321;50.816;6.054;2024-02-16T05:18:36;15.00;67.00
41628;DHT22;27321;50.816;6.054;2024-02-16T05:21:37;15.00;67.00
41628;DHT22;27321;50.816;6.054;2024-02-16T05:24:38;15.00;66.90
41628;DHT22;27321;50.816;6.054;2024-02-16T05:27:39;15.00;66.90
41628;DHT22;27321;50.816;6.054;2024-02-16T05:30:40;15.00;67.00
41628;DHT22;27321;50.816;6.054;2024-02-16T05:33:43;15.00;67.00
41628;DHT22;27321;50.816;6.054;2024-02-16T05:36:45;15.00;67.00
41628;DHT22;27321;50.816;6.054;2024-02-16T05:39:46;15.10;67.10
41628;DHT22;27321;50.816;6.054;2024-02-16T05:43:08;15.10;67.20
41628;DHT22;27321;50.816;6.054;2024-02-16T05:46:15;15.00;67.20
41628;DHT22;27321;50.816;6.054;2024-02-16T05:49:17;15.00;67.40
41628;DHT22;27321;50.816;6.054;2024-02-16T05:52:17;15.00;67.20
41628;DHT22;27321;50.816;6.054;2024-02-16T05:55:19;15.00;67.40
41628;DHT22;27321;50.816;6.054;2024-02-16T05:58:20;15.00;67.40
41628;DHT22;27321;50.816;6.054;2024-02-16T06:01:20;15.00;67.40
41628;DHT22;27321;50.816;6.054;2024-02-16T06:04:21;15.00;67.30
41628;DHT22;27321;50.816;6.054;2024-02-16T06:07:22;15.00;67.30
41628;DHT22;27321;50.816;6.054;2024-02-16T06:10:23;15.00;67.20
41628;DHT22;27321;50.816;6.054;2024-02-16T06:13:24;15.00;67.30
41628;DHT22;27321;50.816;6.054;2024-02-16T06:16:25;15.00;67.40
41628;DHT22;27321;50.816;6.054;2024-02-16T06:19:26;15.00;67.60
41628;DHT22;27321;50.816;6.054;2024-02-16T06:22:27;14.90;67.60
41628;DHT22;27321;50.816;6.054;2024-02-16T06:25:28;14.90;67.80
41628;DHT22;27321;50.816;6.054;2024-02-16T06:28:29;14.80;67.80
41628;DHT22;27321;50.816;6.054;2024-02-16T06:31:30;14.80;67.80
41628;DHT22;27321;50.816;6.054;2024-02-16T06:34:31;14.80;67.80
41628;DHT22;27321;50.816;6.054;2024-02-16T06:37:32;14.80;67.70
41628;DHT22;27321;50.816;6.054;2024-02-16T06:40:33;14.80;67.90
41628;DHT22;27321;50.816;6.054;2024-02-16T06:43:34;14.80;67.90
41628;DHT22;27321;50.816;6.054;2024-02-16T06:46:35;14.70;68.00
41628;DHT22;27321;50.816;6.054;2024-02-16T06:49:36;14.70;68.20
41628;DHT22;27321;50.816;6.054;2024-02-16T06:52:37;14.70;68.30
41628;DHT22;27321;50.816;6.054;2024-02-16T06:55:37;14.80;68.30
41628;DHT22;27321;50.816;6.054;2024-02-16T06:58:38;14.80;68.20
41628;DHT22;27321;50.816;6.054;2024-02-16T07:01:39;14.70;68.50
41628;DHT22;27321;50.816;6.054;2024-02-16T07:04:41;14.70;68.50
41628;DHT22;27321;50.816;6.054;2024-02-16T07:07:42;14.70;68.50
41628;DHT22;27321;50.816;6.054;2024-02-16T07:10:43;14.70;68.60
41628;DHT22;27321;50.816;6.054;2024-02-16T07:13:44;14.70;68.70
41628;DHT22;27321;50.816;6.054;2024-02-16T07:16:45;14.70;68.70
41628;DHT22;27321;50.816;6.054;2024-02-16T07:19:45;14.70;68.80
41628;DHT22;27321;50.816;6.054;2024-02-16T07:22:46;14.70;68.80
41628;DHT22;27321;50.816;6.054;2024-02-16T07:25:47;14.70;68.80
41628;DHT22;27321;50.816;6.054;2024-02-16T07:28:51;14.70;68.90
41628;DHT22;27321;50.816;6.054;2024-02-16T07:31:52;14.70;69.20
41628;DHT22;27321;50.816;6.054;2024-02-16T07:34:54;14.70;69.30
41628;DHT22;27321;50.816;6.054;2024-02-16T07:37:55;14.70;69.20
41628;DHT22;27321;50.816;6.054;2024-02-16T07:40:56;14.70;69.10
41628;DHT22;27321;50.816;6.054;2024-02-16T07:43:56;14.80;69.10
41628;DHT22;27321;50.816;6.054;2024-02-16T07:46:57;14.80;69.10
41628;DHT22;27321;50.816;6.054;2024-02-16T07:49:58;14.80;69.20
41628;DHT22;27321;50.816;6.054;2024-02-16T07:52:59;14.80;69.10
41628;DHT22;27321;50.816;6.054;2024-02-16T07:56:00;14.80;69.20
41628;DHT22;27321;50.816;6.054;2024-02-16T07:59:02;14.80;69.20
41628;DHT22;27321;50.816;6.054;2024-02-16T08:02:03;14.90;69.20
41628;DHT22;27321;50.816;6.054;2024-02-16T08:05:04;14.90;69.10
41628;DHT22;27321;50.816;6.054;2024-02-16T08:08:06;14.90;69.30
41628;DHT22;27321;50.816;6.054;2024-02-16T08:11:08;15.00;69.40
41628;DHT22;27321;50.816;6.054;2024-02-16T08:14:09;15.00;69.30
41628;DHT22;27321;50.816;6.054;2024-02-16T08:17:09;15.00;69.30
41628;DHT22;27321;50.816;6.054;2024-02-16T08:20:11;15.10;69.50
41628;DHT22;27321;50.816;6.054;2024-02-16T08:23:12;15.10;69.10
41628;DHT22;27321;50.816;6.054;2024-02-16T08:26:14;15.10;69.50
41628;DHT22;27321;50.816;6.054;2024-02-16T08:29:16;15.10;69.40
41628;DHT22;27321;50.816;6.054;2024-02-16T08:32:17;15.10;69.40
41628;DHT22;27321;50.816;6.054;2024-02-16T08:35:18;15.10;69.60
41628;DHT22;27321;50.816;6.054;2024-02-16T08:38:19;15.20;69.50
41628;DHT22;27321;50.816;6.054;2024-02-16T08:41:21;15.20;69.70
41628;DHT22;27321;50.816;6.054;2024-02-16T08:44:22;15.20;69.70
41628;DHT22;27321;50.816;6.054;2024-02-16T08:47:23;15.20;69.60
41628;DHT22;27321;50.816;6.054;2024-02-16T08:50:24;15.30;69.80
41628;DHT22;27321;50.816;6.054;2024-02-16T08:53:25;15.20;69.90
41628;DHT22;27321;50.816;6.054;2024-02-16T08:56:27;15.30;69.90
41628;DHT22;27321;50.816;6.054;2024-02-16T08:59:29;15.30;70.10
41628;DHT22;27321;50.816;6.054;2024-02-16T09:02:30;15.30;69.90
41628;DHT22;27321;50.816;6.054;2024-02-16T09:05:32;15.30;69.90
41628;DHT22;27321;50.816;6.054;2024-02-16T09:08:32;15.30;70.00
41628;DHT22;27321;50.816;6.054;2024-02-16T09:11:35;15.30;70.10
41628;DHT22;27321;50.816;6.054;2024-02-16T09:14:36;15.30;70.00
41628;DHT22;27321;50.816;6.054;2024-02-16T09:17:37;15.30;70.20
41628;DHT22;27321;50.816;6.054;2024-02-16T09:20:38;15.30;70.10
41628;DHT22;27321;50.816;6.054;2024-02-16T09:23:39;15.40;70.40
41628;DHT22;27321;50.816;6.054;2024-02-16T09:26:40;15.40;70.40
41628;DHT22;27321;50.816;6.054;2024-02-16T09:29:42;15.40;70.40
41628;DHT22;27321;50.816;6.054;2024-02-16T09:32:43;15.50;70.60
41628;DHT22;27321;50.816;6.054;2024-02-16T09:35:44;15.50;70.50
41628;DHT22;27321;50.816;6.054;2024-02-16T09:38:45;15.50;70.40
41628;DHT22;27321;50.816;6.054;2024-02-16T09:41:50;15.50;70.30
41628;DHT22;27321;50.816;6.054;2024-02-16T09:44:54;15.50;70.40
41628;DHT22;27321;50.816;6.054;2024-02-16T09:47:56;15.60;70.40
41628;DHT22;27321;50.816;6.054;2024-02-16T09:50:58;15.50;70.50
41628;DHT22;27321;50.816;6.054;2024-02-16T09:54:03;15.60;70.50
41628;DHT22;27321;50.816;6.054;2024-02-16T09:57:04;15.50;70.90
41628;DHT22;27321;50.816;6.054;2024-02-16T10:00:06;15.50;70.70
41628;DHT22;27321;50.816;6.054;2024-02-16T10:03:30;15.60;70.90
41628;DHT22;27321;50.816;6.054;2024-02-16T10:06:45;15.60;71.10
41628;DHT22;27321;50.816;6.054;2024-02-16T10:09:50;15.70;70.80
41628;DHT22;27321;50.816;6.054;2024-02-16T10:13:05;15.70;70.80
41628;DHT22;27321;50.816;6.054;2024-02-16T10:16:07;15.80;71.00
41628;DHT22;27321;50.816;6.054;2024-02-16T10:19:10;15.80;70.80
41628;DHT22;27321;50.816;6.054;2024-02-16T10:22:12;15.80;70.70
41628;DHT22;27321;50.816;6.054;2024-02-16T10:25:13;15.80;70.90
41628;DHT22;27321;50.816;6.054;2024-02-16T10:28:15;15.90;70.80
41628;DHT22;27321;50.816;6.054;2024-02-16T10:31:17;15.90;70.90
41628;DHT22;27321;50.816;6.054;2024-02-16T10:34:19;15.90;71.10
41628;DHT22;27321;50.816;6.054;2024-02-16T10:37:21;16.00;70.90
41628;DHT22;27321;50.816;6.054;2024-02-16T10:40:23;15.90;71.00
41628;DHT22;27321;50.816;6.054;2024-02-16T10:43:24;15.90;71.00
41628;DHT22;27321;50.816;6.054;2024-02-16T10:46:26;15.90;71.30
41628;DHT22;27321;50.816;6.054;2024-02-16T10:49:28;15.80;70.70
41628;DHT22;27321;50.816;6.054;2024-02-16T10:52:29;15.80;71.30
41628;DHT22;27321;50.816;6.054;2024-02-16T10:55:30;15.80;71.40
41628;DHT22;27321;50.816;6.054;2024-02-16T10:58:31;15.80;71.30
41628;DHT22;27321;50.816;6.054;2024-02-16T11:01:42;15.80;71.50
41628;DHT22;27321;50.816;6.054;2024-02-16T11:04:46;15.80;71.70
41628;DHT22;27321;50.816;6.054;2024-02-16T11:08:05;15.70;71.60
41628;DHT22;27321;50.816;6.054;2024-02-16T11:11:22;15.70;71.80
41628;DHT22;27321;50.816;6.054;2024-02-16T11:14:24;15.70;72.00
41628;DHT22;27321;50.816;6.054;2024-02-16T11:17:35;15.60;72.00
41628;DHT22;27321;50.816;6.054;2024-02-16T11:20:37;15.70;72.10
41628;DHT22;27321;50.816;6.054;2024-02-16T11:23:42;15.70;72.10
41628;DHT22;27321;50.816;6.054;2024-02-16T11:26:45;15.60;72.20
41628;DHT22;27321;50.816;6.054;2024-02-16T11:29:46;15.60;72.20
41628;DHT22;27321;50.816;6.054;2024-02-16T11:32:47;15.70;72.50
41628;DHT22;27321;50.816;6.054;2024-02-16T11:36:02;15.60;72.30
41628;DHT22;27321;50.816;6.054;2024-02-16T11:39:14;15.60;72.30
41628;DHT22;27321;50.816;6.054;2024-02-16T11:42:19;15.60;72.50
41628;DHT22;27321;50.816;6.054;2024-02-16T11:45:20;15.60;72.30
41628;DHT22;27321;50.816;6.054;2024-02-16T11:48:22;15.60;72.60
41628;DHT22;27321;50.816;6.054;2024-02-16T11:51:27;15.60;72.80
41628;DHT22;27321;50.816;6.054;2024-02-16T11:54:27;15.60;72.90
41628;DHT22;27321;50.816;6.054;2024-02-16T11:57:30;15.50;73.00
41628;DHT22;27321;50.816;6.054;2024-02-16T12:00:31;15.50;72.90
41628;DHT22;27321;50.816;6.054;2024-02-16T12:03:32;15.50;73.40
41628;DHT22;27321;50.816;6.054;2024-02-16T12:06:33;15.40;73.50
41628;DHT22;27321;50.816;6.054;2024-02-16T12:09:34;15.40;73.80
41628;DHT22;27321;50.816;6.054;2024-02-16T12:12:36;15.40;73.80
41628;DHT22;27321;50.816;6.054;2024-02-16T12:15:38;15.40;74.10
41628;DHT22;27321;50.816;6.054;2024-02-16T12:18:39;15.40;74.20
41628;DHT22;27321;50.816;6.054;2024-02-16T12:21:40;15.40;74.50
41628;DHT22;27321;50.816;6.054;2024-02-16T12:24:42;15.40;74.60
41628;DHT22;27321;50.816;6.054;2024-02-16T12:27:45;15.40;75.10
41628;DHT22;27321;50.816;6.054;2024-02-16T12:30:47;15.30;75.20
41628;DHT22;27321;50.816;6.054;2024-02-16T12:33:48;15.30;75.60
41628;DHT22;27321;50.816;6.054;2024-02-16T12:36:49;15.30;75.70
41628;DHT22;27321;50.816;6.054;2024-02-16T12:39:50;15.30;75.60
41628;DHT22;27321;50.816;6.054;2024-02-16T12:42:51;15.30;75.80
41628;DHT22;27321;50.816;6.054;2024-02-16T12:45:52;15.30;75.80
41628;DHT22;27321;50.816;6.054;2024-02-16T12:48:53;15.30;75.90
41628;DHT22;27321;50.816;6.054;2024-02-16T12:51:55;15.30;76.00
41628;DHT22;27321;50.816;6.054;2024-02-16T12:54:56;15.30;76.40
41628;DHT22;27321;50.816;6.054;2024-02-16T12:57:59;15.30;76.70
41628;DHT22;27321;50.816;6.054;2024-02-16T13:01:03;15.30;77.10
41628;DHT22;27321;50.816;6.054;2024-02-16T13:04:06;15.30;77.40
41628;DHT22;27321;50.816;6.054;2024-02-16T13:07:07;15.30;77.90
41628;DHT22;27321;50.816;6.054;2024-02-16T13:10:09;15.30;78.00
41628;DHT22;27321;50.816;6.054;2024-02-16T13:13:10;15.30;77.90
41628;DHT22;27321;50.816;6.054;2024-02-16T13:16:11;15.30;78.00
41628;DHT22;27321;50.816;6.054;2024-02-16T13:19:12;15.30;78.10
41628;DHT22;27321;50.816;6.054;2024-02-16T13:22:14;15.30;78.20
41628;DHT22;27321;50.816;6.054;2024-02-16T13:25:16;15.30;78.30
41628;DHT22;27321;50.816;6.054;2024-02-16T13:28:21;15.30;78.40
41628;DHT22;27321;50.816;6.054;2024-02-16T13:31:23;15.30;78.60
41628;DHT22;27321;50.816;6.054;2024-02-16T13:34:24;15.20;78.70
41628;DHT22;27321;50.816;6.054;2024-02-16T13:37:27;15.20;79.00
41628;DHT22;27321;50.816;6.054;2024-02-16T13:40:28;15.10;79.10
41628;DHT22;27321;50.816;6.054;2024-02-16T13:43:29;15.20;79.20
41628;DHT22;27321;50.816;6.054;2024-02-16T13:46:30;15.10;79.50
41628;DHT22;27321;50.816;6.054;2024-02-16T13:49:31;15.10;79.80
41628;DHT22;27321;50.816;6.054;2024-02-16T13:52:32;15.10;79.80
41628;DHT22;27321;50.816;6.054;2024-02-16T13:55:35;15.00;80.10
41628;DHT22;27321;50.816;6.054;2024-02-16T13:58:36;15.00;80.60
41628;DHT22;27321;50.816;6.054;2024-02-16T14:01:38;15.00;80.40
41628;DHT22;27321;50.816;6.054;2024-02-16T14:04:39;15.00;80.60
41628;DHT22;27321;50.816;6.054;2024-02-16T14:07:40;15.00;80.50
41628;DHT22;27321;50.816;6.054;2024-02-16T14:10:41;15.00;80.30
41628;DHT22;27321;50.816;6.054;2024-02-16T14:13:42;15.00;80.50
41628;DHT22;27321;50.816;6.054;2024-02-16T14:16:43;15.00;80.40
41628;DHT22;27321;50.816;6.054;2024-02-16T14:19:44;15.10;80.60
41628;DHT22;27321;50.816;6.054;2024-02-16T14:22:45;15.10;80.40
41628;DHT22;27321;50.816;6.054;2024-02-16T14:25:47;15.10;80.50
41628;DHT22;27321;50.816;6.054;2024-02-16T14:28:48;15.00;80.20
41628;DHT22;27321;50.816;6.054;2024-02-16T14:31:49;15.00;80.40
41628;DHT22;27321;50.816;6.054;2024-02-16T14:34:50;15.00;80.70
41628;DHT22;27321;50.816;6.054;2024-02-16T14:37:51;14.90;81.00
41628;DHT22;27321;50.816;6.054;2024-02-16T14:40:52;14.90;80.80
41628;DHT22;27321;50.816;6.054;2024-02-16T14:43:52;14.90;81.10
41628;DHT22;27321;50.816;6.054;2024-02-16T14:46:53;14.80;80.90
41628;DHT22;27321;50.816;6.054;2024-02-16T14:49:54;14.80;81.20
41628;DHT22;27321;50.816;6.054;2024-02-16T14:52:56;14.80;81.40
41628;DHT22;27321;50.816;6.054;2024-02-16T14:55:56;14.70;81.10
41628;DHT22;27321;50.816;6.054;2024-02-16T14:58:58;14.70;81.80
41628;DHT22;27321;50.816;6.054;2024-02-16T15:01:59;14.70;81.40
41628;DHT22;27321;50.816;6.054;2024-02-16T15:05:07;14.70;81.10
41628;DHT22;27321;50.816;6.054;2024-02-16T15:08:08;14.60;81.50
41628;DHT22;27321;50.816;6.054;2024-02-16T15:11:10;14.50;81.60
41628;DHT22;27321;50.816;6.054;2024-02-16T15:14:11;14.50;81.50
41628;DHT22;27321;50.816;6.054;2024-02-16T15:17:14;14.40;81.60
41628;DHT22;27321;50.816;6.054;2024-02-16T15:20:16;14.30;82.00
41628;DHT22;27321;50.816;6.054;2024-02-16T15:23:17;14.30;81.80
41628;DHT22;27321;50.816;6.054;2024-02-16T15:26:18;14.40;81.80
41628;DHT22;27321;50.816;6.054;2024-02-16T15:29:19;14.30;82.00
41628;DHT22;27321;50.816;6.054;2024-02-16T15:32:22;14.30;82.20
41628;DHT22;27321;50.816;6.054;2024-02-16T15:35:23;14.30;81.80
41628;DHT22;27321;50.816;6.054;2024-02-16T15:38:25;14.20;81.90
41628;DHT22;27321;50.816;6.054;2024-02-16T15:41:26;14.00;81.70
41628;DHT22;27321;50.816;6.054;2024-02-16T15:44:28;14.00;81.90
41628;DHT22;27321;50.816;6.054;2024-02-16T15:47:29;14.00;82.00
41628;DHT22;27321;50.816;6.054;2024-02-16T15:50:31;13.90;82.00
41628;DHT22;27321;50.816;6.054;2024-02-16T15:53:31;14.00;82.10
41628;DHT22;27321;50.816;6.054;2024-02-16T15:56:33;14.00;81.80
41628;DHT22;27321;50.816;6.054;2024-02-16T15:59:34;14.00;81.60
41628;DHT22;27321;50.816;6.054;2024-02-16T16:02:35;14.00;81.80
41628;DHT22;27321;50.816;6.054;2024-02-16T16:05:37;14.00;81.50
41628;DHT22;27321;50.816;6.054;2024-02-16T16:08:39;14.00;81.80
41628;DHT22;27321;50.816;6.054;2024-02-16T16:11:43;14.00;81.50
41628;DHT22;27321;50.816;6.054;2024-02-16T16:14:47;14.10;81.20
41628;DHT22;27321;50.816;6.054;2024-02-16T16:17:48;14.20;80.90
41628;DHT22;27321;50.816;6.054;2024-02-16T16:20:49;14.20;80.70
41628;DHT22;27321;50.816;6.054;2024-02-16T16:23:50;14.20;80.70
41628;DHT22;27321;50.816;6.054;2024-02-16T16:26:51;14.20;80.60
41628;DHT22;27321;50.816;6.054;2024-02-16T16:29:53;14.20;80.60
41628;DHT22;27321;50.816;6.054;2024-02-16T16:32:54;14.20;80.50
41628;DHT22;27321;50.816;6.054;2024-02-16T16:35:56;14.10;80.50
41628;DHT22;27321;50.816;6.054;2024-02-16T16:38:58;14.00;80.30
41628;DHT22;27321;50.816;6.054;2024-02-16T16:41:59;14.10;80.90
41628;DHT22;27321;50.816;6.054;2024-02-16T16:45:00;14.00;80.10
41628;DHT22;27321;50.816;6.054;2024-02-16T16:48:06;14.00;80.20
41628;DHT22;27321;50.816;6.054;2024-02-16T16:51:07;13.90;80.20
41628;DHT22;27321;50.816;6.054;2024-02-16T16:54:09;13.90;80.70
41628;DHT22;27321;50.816;6.054;2024-02-16T16:57:13;14.00;80.50
41628;DHT22;27321;50.816;6.054;2024-02-16T17:00:14;14.10;80.50
41628;DHT22;27321;50.816;6.054;2024-02-16T17:03:15;14.00;79.90
41628;DHT22;27321;50.816;6.054;2024-02-16T17:06:16;14.00;79.90
41628;DHT22;27321;50.816;6.054;2024-02-16T17:09:17;14.00;80.00
41628;DHT22;27321;50.816;6.054;2024-02-16T17:12:19;14.00;79.50
41628;DHT22;27321;50.816;6.054;2024-02-16T17:15:22;14.00;79.70
41628;DHT22;27321;50.816;6.054;2024-02-16T17:18:23;14.00;79.30
41628;DHT22;27321;50.816;6.054;2024-02-16T17:21:24;14.00;79.30
41628;DHT22;27321;50.816;6.054;2024-02-16T17:24:25;13.90;79.40
41628;DHT22;27321;50.816;6.054;2024-02-16T17:27:33;13.90;79.70
41628;DHT22;27321;50.816;6.054;2024-02-16T17:30:35;13.90;79.60
41628;DHT22;27321;50.816;6.054;2024-02-16T17:33:37;13.90;79.40
41628;DHT22;27321;50.816;6.054;2024-02-16T17:36:38;13.90;79.60
41628;DHT22;27321;50.816;6.054;2024-02-16T17:39:39;13.80;79.10
41628;DHT22;27321;50.816;6.054;2024-02-16T17:42:40;13.70;79.20
41628;DHT22;27321;50.816;6.054;2024-02-16T17:45:41;13.60;79.60
41628;DHT22;27321;50.816;6.054;2024-02-16T17:48:45;13.60;79.90
41628;DHT22;27321;50.816;6.054;2024-02-16T17:51:46;13.70;79.80
41628;DHT22;27321;50.816;6.054;2024-02-16T17:54:47;13.70;79.60
41628;DHT22;27321;50.816;6.054;2024-02-16T17:57:48;13.70;79.30
41628;DHT22;27321;50.816;6.054;2024-02-16T18:00:49;13.70;78.90
41628;DHT22;27321;50.816;6.054;2024-02-16T18:03:50;13.70;78.90
41628;DHT22;27321;50.816;6.054;2024-02-16T18:06:51;13.80;78.90
41628;DHT22;27321;50.816;6.054;2024-02-16T18:09:52;13.70;78.20
41628;DHT22;27321;50.816;6.054;2024-02-16T18:12:53;13.70;78.30
41628;DHT22;27321;50.816;6.054;2024-02-16T18:15:54;13.70;77.90
41628;DHT22;27321;50.816;6.054;2024-02-16T18:18:55;13.70;78.00
41628;DHT22;27321;50.816;6.054;2024-02-16T18:21:57;13.70;77.60
41628;DHT22;27321;50.816;6.054;2024-02-16T18:25:04;13.70;77.90
41628;DHT22;27321;50.816;6.054;2024-02-16T18:28:18;13.70;77.70
41628;DHT22;27321;50.816;6.054;2024-02-16T18:31:26;13.80;77.90
41628;DHT22;27321;50.816;6.054;2024-02-16T18:34:28;13.70;78.10
41628;DHT22;27321;50.816;6.054;2024-02-16T18:37:29;13.80;78.10
41628;DHT22;27321;50.816;6.054;2024-02-16T18:40:34;13.90;77.90
41628;DHT22;27321;50.816;6.054;2024-02-16T18:43:42;13.90;77.80
41628;DHT22;27321;50.816;6.054;2024-02-16T18:46:44;13.90;77.40
41628;DHT22;27321;50.816;6.054;2024-02-16T18:49:46;13.90;77.70
41628;DHT22;27321;50.816;6.054;2024-02-16T18:52:49;13.90;77.50
41628;DHT22;27321;50.816;6.054;2024-02-16T18:55:50;14.00;77.60
41628;DHT22;27321;50.816;6.054;2024-02-16T18:58:52;13.80;77.20
41628;DHT22;27321;50.816;6.054;2024-02-16T19:01:54;13.80;77.80
41628;DHT22;27321;50.816;6.054;2024-02-16T19:05:03;13.80;78.10
41628;DHT22;27321;50.816;6.054;2024-02-16T19:08:05;13.80;77.80